Stations météo

Publicité
Lus-La-Croix-Haute, France (7587): Température de l'air & dewpoint: 26.03.2020 11:00:00 - 01.04.2020 11:00:00 (CEST)Lus-La-Croix-Haute, France (7587): Vitesse du vent & gusts: 26.03.2020 11:00:00 - 01.04.2020 11:00:00 (CEST)Lus-La-Croix-Haute, France (7587): Direction du vent: 26.03.2020 11:00:00 - 01.04.2020 11:00:00 (CEST)Lus-La-Croix-Haute, France (7587): Quantités de précipitations: 26.03.2020 11:00:00 - 01.04.2020 11:00:00 (CEST)
Date & Time tt [°C] td [°C] ff [km/h] ff [knt] fx [km/h] fx [knt] dd rr [mm]
01.04.2020 11:00:00 - - - - - - - -
01.04.2020 10:00:00 2,0 0,5 3 1 7 4 SSE 0,0
01.04.2020 09:00:00 -1,6 -2,6 0 0 4 2 N 0,0
01.04.2020 08:00:00 -1,9 -2,7 0 0 6 3 N 0,0
01.04.2020 07:00:00 -2,2 -3,0 2 1 8 4 N 0,0
01.04.2020 06:00:00 -2,4 -3,4 2 1 6 4 SE 0,0
01.04.2020 05:00:00 -2,9 -3,7 3 1 8 4 SE 0,0
01.04.2020 04:00:00 -2,8 -3,8 3 1 6 3 SE 0,0
01.04.2020 03:00:00 -2,2 -3,2 0 0 5 3 N 0,0
01.04.2020 02:00:00 -1,9 -3,5 2 1 6 3 SE 0,0
01.04.2020 01:00:00 -0,7 -2,8 2 1 6 4 NNW 0,0
01.04.2020 00:00:00 0,4 -2,2 3 1 8 4 ENE 0,0
31.03.2020 23:00:00 0,8 -2,1 4 2 10 6 N 0,0
31.03.2020 22:00:00 2,3 -1,5 4 2 25 14 NE 0,0
31.03.2020 21:00:00 3,1 -0,9 15 8 29 16 NW 0,0
31.03.2020 20:00:00 4,2 0,2 15 8 38 20 NW 0,0
31.03.2020 19:00:00 5,6 0,9 22 12 39 21 NW 0,0
31.03.2020 18:00:00 5,7 1,2 18 10 41 22 NW 0,0
31.03.2020 17:00:00 5,5 1,4 18 10 39 21 NW 0,0
31.03.2020 16:00:00 5,6 1,3 20 11 48 26 NW 0,0
31.03.2020 15:00:00 5,5 0,7 19 10 42 23 WNW 0,0
31.03.2020 14:00:00 8,1 1,5 18 10 36 19 NW 0,0
31.03.2020 13:00:00 9,9 2,7 10 5 25 13 WNW 0,0
31.03.2020 12:00:00 6,6 1,1 11 6 27 15 WNW 0,0
31.03.2020 11:00:00 4,8 0,4 9 5 24 13 WNW 0,0
31.03.2020 10:00:00 2,4 -0,5 8 4 16 9 NW 0,0
31.03.2020 09:00:00 0,7 -1,9 2 1 10 5 E 0,0
31.03.2020 08:00:00 -0,1 -2,0 3 2 10 6 NNE 0,0
31.03.2020 07:00:00 -0,1 -2,2 4 2 9 5 W 0,0
31.03.2020 06:00:00 0,1 -2,0 4 2 10 5 SSW 0,0
31.03.2020 05:00:00 0,2 -2,0 5 3 16 9 W 0,0
31.03.2020 04:00:00 0,4 -1,7 8 5 19 10 NW 0,0
31.03.2020 03:00:00 0,6 -1,6 8 4 20 11 WNW 0,0
31.03.2020 02:00:00 0,6 -1,6 11 6 25 13 NW 0,0
31.03.2020 01:00:00 0,8 -1,6 10 6 28 15 NW 0,0
31.03.2020 00:00:00 1,3 -1,4 8 4 24 13 NW 0,0
30.03.2020 23:00:00 1,6 -1,3 5 3 29 15 NW 0,0
30.03.2020 22:00:00 1,9 -1,2 10 5 29 16 NNW 0,0
30.03.2020 21:00:00 1,9 -0,8 11 6 27 14 NW 0,0
30.03.2020 20:00:00 2,1 -0,5 11 6 25 14 NW 0,0
30.03.2020 19:00:00 2,5 -0,4 13 7 29 16 NNW 0,0
30.03.2020 18:00:00 2,7 0,3 13 7 44 24 NW 0,0
30.03.2020 17:00:00 3,0 0,1 23 12 53 29 WNW 0,0
30.03.2020 16:00:00 4,0 0,1 24 13 51 28 NW 0,0
30.03.2020 15:00:00 4,9 0,3 22 12 44 24 NW 0,0
30.03.2020 14:00:00 4,7 -0,1 18 10 40 21 WNW 0,0
30.03.2020 13:00:00 4,2 -0,6 16 9 35 19 NW 0,0
30.03.2020 12:00:00 2,7 -0,6 12 6 32 17 WNW 0,0
30.03.2020 11:00:00 1,7 -1,2 14 8 33 18 WNW 0,0
30.03.2020 10:00:00 2,0 -1,1 11 6 27 15 WNW 0,0
30.03.2020 09:00:00 0,7 -1,9 3 2 22 12 N 0,0
30.03.2020 08:00:00 -0,1 -2,2 6 3 18 10 NNW 0,0
30.03.2020 07:00:00 -0,1 -2,0 11 6 28 15 WNW 0,0
30.03.2020 06:00:00 0,0 -2,1 9 5 21 11 WNW 0,0
30.03.2020 05:00:00 0,7 -2,2 4 2 33 18 NNW 0,0
30.03.2020 04:00:00 0,6 -2,0 12 6 32 18 NNW 0,0
30.03.2020 03:00:00 0,7 -1,5 14 8 32 18 NNW 0,0
30.03.2020 02:00:00 0,8 -1,4 14 7 32 17 NNW 0,0
30.03.2020 01:00:00 0,7 -0,9 16 9 31 17 NNW 0,0
30.03.2020 00:00:00 0,9 -0,6 16 8 35 19 NW 0,0
29.03.2020 23:00:00 0,9 -0,4 20 11 34 18 NW 0,0
29.03.2020 22:00:00 1,4 -0,4 11 6 35 19 NW 0,0
29.03.2020 21:00:00 1,9 -0,4 18 10 38 21 NW 0,0
29.03.2020 20:00:00 2,9 0,0 17 9 38 21 NW 0,0
29.03.2020 19:00:00 4,1 0,4 21 11 45 24 NNW 0,0
29.03.2020 18:00:00 5,6 0,8 20 11 41 22 NNW 0,0
29.03.2020 17:00:00 7,6 1,4 21 12 44 24 NW 0,0
29.03.2020 16:00:00 10,3 1,9 21 12 54 29 NNW 0,0
29.03.2020 15:00:00 12,6 3,0 13 7 40 22 NNW 0,0
29.03.2020 14:00:00 12,8 2,3 9 5 36 20 NNW 0,0
29.03.2020 13:00:00 11,6 2,9 13 7 33 18 NW 0,0
29.03.2020 12:00:00 10,4 2,2 13 7 25 14 NW 0,0
29.03.2020 11:00:00 9,2 2,1 10 5 28 15 NW 0,0
29.03.2020 10:00:00 8,5 2,1 11 6 23 12 NNW 0,0
29.03.2020 09:00:00 5,9 2,0 4 2 12 6 N 0,0
29.03.2020 08:00:00 3,7 0,6 3 2 12 6 NE 0,0
29.03.2020 07:00:00 3,9 1,1 3 2 11 6 NNE 0,0
29.03.2020 06:00:00 3,7 0,7 2 1 9 5 ENE 0,0
29.03.2020 05:00:00 3,3 0,5 2 1 9 5 E 0,0
29.03.2020 04:00:00 3,7 0,7 4 2 10 6 N 0,0
29.03.2020 03:00:00 3,7 0,6 2 1 11 6 NE 0,0
29.03.2020 02:00:00 3,9 0,8 4 2 10 5 E 0,0
29.03.2020 01:00:00 4,0 0,5 3 1 12 7 N 0,0
29.03.2020 00:00:00 4,9 0,5 3 1 14 7 E 0,0
28.03.2020 23:00:00 5,8 0,7 7 4 17 9 NE 0,0
28.03.2020 22:00:00 5,8 0,3 5 3 20 11 E 0,0
28.03.2020 21:00:00 7,8 0,7 7 4 27 15 N 0,0
28.03.2020 20:00:00 8,5 0,7 7 4 24 13 N 0,0
28.03.2020 19:00:00 10,9 0,9 14 8 38 20 NNW 0,0
28.03.2020 18:00:00 13,1 1,7 18 10 39 21 NW 0,0
28.03.2020 17:00:00 14,4 1,0 17 9 40 22 NW 0,0
28.03.2020 16:00:00 14,0 -0,1 19 10 41 22 NW 0,0
28.03.2020 15:00:00 13,4 1,4 21 11 40 21 NW 0,0
28.03.2020 14:00:00 13,1 -0,2 15 8 34 18 NW 0,0
28.03.2020 13:00:00 12,3 0,7 17 9 45 24 NW 0,0
28.03.2020 12:00:00 10,7 0,4 21 12 39 21 WNW 0,0
28.03.2020 11:00:00 10,1 0,1 14 8 30 16 NNW 0,0
28.03.2020 10:00:00 6,4 0,1 2 1 7 4 ESE 0,0
28.03.2020 09:00:00 1,6 -0,3 0 0 7 4 N 0,0
28.03.2020 08:00:00 0,0 -1,8 4 2 8 4 E 0,0
28.03.2020 07:00:00 0,2 -1,2 4 2 7 4 E 0,0
28.03.2020 06:00:00 0,0 -1,9 5 3 6 4 SE 0,0
28.03.2020 05:00:00 1,1 -1,1 2 1 3 2 S 0,0
28.03.2020 04:00:00 1,0 -1,1 2 1 5 3 SE 0,0
28.03.2020 03:00:00 1,5 -1,2 0 0 3 2 N 0,0
28.03.2020 02:00:00 2,0 -1,1 0 0 4 2 N 0,0
28.03.2020 01:00:00 2,4 -1,4 0 0 4 2 N 0,0
28.03.2020 00:00:00 2,4 -1,4 0 0 7 4 N 0,0
27.03.2020 23:00:00 2,5 -1,5 3 2 6 3 N 0,0
27.03.2020 22:00:00 3,4 -1,4 2 1 9 5 SE 0,0
27.03.2020 21:00:00 4,2 -1,2 0 0 6 3 N 0,0
27.03.2020 20:00:00 5,7 -1,0 3 2 22 12 N 0,0
27.03.2020 19:00:00 7,0 -1,2 8 5 21 11 NW 0,0
27.03.2020 18:00:00 7,5 -1,2 10 5 29 16 NW 0,0
27.03.2020 17:00:00 8,0 -1,8 15 8 37 20 NW 0,0
27.03.2020 16:00:00 10,3 -2,4 18 10 35 19 NW 0,0
27.03.2020 15:00:00 11,0 -1,4 12 6 29 16 WNW 0,0
27.03.2020 14:00:00 9,8 -2,8 10 5 29 15 NW 0,0
27.03.2020 13:00:00 8,6 -2,7 16 9 35 19 WNW 0,0
27.03.2020 12:00:00 8,1 -3,1 17 9 34 18 WNW 0,0
27.03.2020 11:00:00 6,1 -3,8 3 1 10 5 NE 0,0
27.03.2020 10:00:00 2,6 -4,2 3 2 9 5 SSE 0,0
27.03.2020 09:00:00 -0,8 -4,9 4 2 10 5 E 0,0
27.03.2020 08:00:00 -2,5 -6,0 7 4 10 6 ESE 0,0
27.03.2020 07:00:00 -2,1 -5,9 4 2 10 5 NE 0,0
27.03.2020 06:00:00 -1,9 -6,1 4 2 9 5 E 0,0
27.03.2020 05:00:00 -1,4 -6,2 4 2 10 6 E 0,0
27.03.2020 04:00:00 -1,3 -6,3 4 2 13 7 NE 0,0
27.03.2020 03:00:00 -1,0 -6,2 3 2 8 4 N 0,0
27.03.2020 02:00:00 -0,7 -6,3 4 2 10 5 NNE 0,0
27.03.2020 01:00:00 -0,3 -6,1 6 3 13 7 N 0,0
27.03.2020 00:00:00 0,7 -6,6 6 4 13 7 NNE 0,0
26.03.2020 23:00:00 1,3 -7,0 3 2 16 9 N 0,0
26.03.2020 22:00:00 2,0 -7,1 5 3 14 8 NNE 0,0
26.03.2020 21:00:00 2,2 -6,4 4 2 11 6 N 0,0
26.03.2020 20:00:00 3,1 -6,3 5 3 20 11 NNE 0,0
26.03.2020 19:00:00 4,7 -6,8 3 2 27 14 NNE 0,0
26.03.2020 18:00:00 5,3 -6,6 11 6 35 19 N 0,0
26.03.2020 17:00:00 5,1 -5,9 11 6 27 15 NE 0,0
26.03.2020 16:00:00 4,8 -6,2 9 5 26 14 NNW 0,0
26.03.2020 15:00:00 6,0 -4,5 8 5 29 16 N 0,0
26.03.2020 14:00:00 4,2 -4,8 13 7 34 18 NNW 0,0
26.03.2020 13:00:00 2,5 -5,2 9 5 29 15 NNW 0,0
26.03.2020 12:00:00 1,5 -4,0 10 5 25 14 NNW 0,0
26.03.2020 11:00:00 - - - - - - - -

tt = Température de l'air
td = dewpoint
ff = Vitesse du vent
fx = gusts
dd = Direction du vent
rr = Quantités de précipitations

stations d'obs. à proximité